Isla Diego Ramirez, Chile
Current Conditions -  °F | °C
As of 10:00 PM on Wednesday 28 Jan 2015 (Local Time) from SAWH Reporting Station
Scattered Clouds Scattered Clouds  
Wind Chill: 52°   Ceiling: Unl
Heat Index: 52°   Visibility: 6mi
Dew Point: 39°   Wind: 5mph
Humidity: 62%   Direction: 320°NW
Pressure: 29.88"   Gusts: NA
Location:  56.6°S, 68.72°W
Report Text: SAWH 290200Z 32004KT 9999 SCT040 SCT10011/04 Q1012
Loading
Personal Weather Stations






























Interactive Weather Map New forecast layout! Learn more

10-Day Weather Forecast

Advertisements
Track Severe Weather on mobile